createdAt,value
2019-02-27T00:01:17.011Z,44.90
2019-02-27T00:03:45.922Z,46.60
2019-02-27T00:06:15.923Z,47.30
2019-02-27T00:08:49.928Z,48.50
2019-02-27T00:12:05.450Z,49.30
2019-02-27T00:14:45.484Z,50.00
2019-02-27T00:17:18.834Z,49.80
2019-02-27T00:19:49.566Z,50.60
2019-02-27T00:22:20.479Z,50.60
2019-02-27T00:24:48.986Z,50.30
2019-02-27T00:27:28.626Z,49.50
2019-02-27T00:29:59.447Z,49.50
2019-02-27T00:32:56.488Z,50.10
2019-02-27T00:35:52.111Z,50.40
2019-02-27T00:38:25.190Z,49.80
2019-02-27T00:40:54.530Z,50.10
2019-02-27T00:43:28.426Z,50.80
2019-02-27T00:45:59.453Z,51.20
2019-02-27T00:48:42.922Z,51.40
2019-02-27T00:51:25.336Z,51.60
2019-02-27T00:53:58.297Z,51.70
2019-02-27T00:56:35.647Z,51.30
2019-02-27T00:59:32.893Z,51.30
2019-02-27T01:02:25.333Z,51.20
2019-02-27T01:05:09.169Z,51.30
2019-02-27T01:07:46.561Z,51.40
2019-02-27T01:10:32.469Z,51.20
2019-02-27T01:13:12.459Z,51.80
2019-02-27T01:15:48.566Z,51.70
2019-02-27T01:18:45.912Z,51.20
2019-02-27T01:21:20.079Z,51.40
2019-02-27T01:24:02.870Z,51.10
2019-02-27T01:26:38.854Z,49.40
2019-02-27T01:29:38.371Z,49.80
2019-02-27T01:32:17.085Z,49.80
2019-02-27T01:40:03.729Z,46.70
2019-02-27T01:42:41.528Z,47.10
2019-02-27T01:45:56.596Z,46.90
2019-02-27T01:51:31.936Z,45.50
2019-02-27T01:53:59.531Z,45.40
2019-02-27T01:56:29.070Z,45.00
2019-02-27T01:58:56.746Z,45.70
2019-02-27T02:01:24.292Z,43.40
2019-02-27T02:03:54.000Z,44.90
2019-02-27T02:06:21.564Z,41.80
2019-02-27T02:09:08.185Z,41.70
2019-02-27T02:11:41.136Z,42.30
2019-02-27T02:14:30.342Z,40.70
2019-02-27T02:17:20.442Z,40.30
2019-02-27T02:20:38.861Z,40.90
2019-02-27T02:23:29.671Z,39.90
2019-02-27T02:26:12.657Z,39.80
2019-02-27T02:28:54.809Z,39.70
2019-02-27T02:31:47.068Z,40.00
2019-02-27T02:34:53.128Z,39.60
2019-02-27T02:38:12.423Z,39.70
2019-02-27T02:41:13.897Z,44.60
2019-02-27T02:44:10.590Z,45.90
2019-02-27T02:47:08.437Z,48.20
2019-02-27T02:49:52.154Z,49.80
2019-02-27T02:52:57.539Z,51.00
2019-02-27T02:56:06.797Z,51.90
2019-02-27T02:59:11.115Z,53.50
2019-02-27T03:01:45.575Z,54.10
2019-02-27T03:04:56.193Z,54.40
2019-02-27T03:07:49.397Z,55.00
2019-02-27T03:10:22.918Z,54.90
2019-02-27T03:13:31.173Z,55.70
2019-02-27T03:16:06.117Z,56.10
2019-02-27T03:21:27.548Z,56.60
2019-02-27T03:24:29.041Z,55.90
2019-02-27T03:27:29.552Z,54.40
2019-02-27T03:30:37.210Z,54.30
2019-02-27T03:33:28.108Z,54.80
2019-02-27T03:36:09.117Z,52.90
2019-02-27T03:39:35.035Z,53.40
2019-02-27T03:42:21.642Z,53.70
2019-02-27T03:45:30.972Z,51.50
2019-02-27T03:48:45.824Z,52.90
2019-02-27T03:51:49.901Z,53.00
2019-02-27T03:54:50.011Z,51.10
2019-02-27T03:57:54.911Z,52.70
2019-02-27T04:00:43.941Z,53.30
2019-02-27T04:03:54.295Z,53.70
2019-02-27T04:06:28.101Z,54.50
2019-02-27T04:08:57.433Z,55.10
2019-02-27T04:11:25.156Z,54.00
2019-02-27T04:13:53.226Z,55.20
2019-02-27T04:16:20.922Z,55.10
2019-02-27T04:18:48.594Z,54.50
2019-02-27T04:21:16.225Z,54.40
2019-02-27T04:23:47.970Z,54.60
2019-02-27T04:26:13.404Z,54.30
2019-02-27T04:28:40.964Z,53.90
2019-02-27T04:31:08.633Z,51.70
2019-02-27T04:33:36.288Z,52.40
2019-02-27T04:36:03.884Z,52.50
2019-02-27T04:38:31.493Z,53.20
2019-02-27T04:40:59.618Z,54.10
2019-02-27T04:43:27.237Z,54.90
2019-02-27T04:45:54.936Z,55.80
2019-02-27T04:48:22.682Z,56.40
2019-02-27T04:50:50.360Z,56.50
2019-02-27T04:53:18.273Z,56.90
2019-02-27T04:55:48.006Z,58.50
2019-02-27T04:58:15.604Z,58.50
2019-02-27T05:00:43.364Z,59.30
2019-02-27T05:03:10.963Z,59.20
2019-02-27T05:05:39.107Z,58.70
2019-02-27T05:08:08.164Z,60.80
2019-02-27T05:10:38.171Z,59.40
2019-02-27T05:13:05.349Z,59.60
2019-02-27T05:15:32.894Z,60.10
2019-02-27T05:18:00.495Z,58.90
2019-02-27T05:20:29.573Z,59.70
2019-02-27T05:23:00.074Z,59.50
2019-02-27T05:25:26.636Z,59.30
2019-02-27T05:27:54.243Z,59.60
2019-02-27T05:30:21.832Z,59.50
2019-02-27T05:32:52.074Z,58.60
2019-02-27T05:35:23.392Z,58.10
2019-02-27T05:37:49.186Z,59.30
2019-02-27T05:42:44.700Z,58.40
2019-02-27T05:45:12.522Z,60.90
2019-02-27T05:47:44.855Z,59.00
2019-02-27T05:50:11.297Z,59.70
2019-02-27T05:52:39.008Z,58.70
2019-02-27T05:55:07.085Z,61.00
2019-02-27T05:57:34.913Z,58.90
2019-02-27T06:00:03.419Z,59.80
2019-02-27T06:02:31.254Z,60.70
2019-02-27T06:04:59.046Z,60.00
2019-02-27T06:09:54.954Z,60.00
2019-02-27T06:12:22.591Z,63.40
2019-02-27T06:14:54.792Z,61.70
2019-02-27T06:17:22.605Z,60.00
2019-02-27T06:19:50.189Z,59.50
2019-02-27T06:22:17.813Z,60.90
2019-02-27T06:24:45.592Z,61.70
2019-02-27T06:27:14.106Z,60.50
2019-02-27T06:29:44.445Z,58.90
2019-02-27T06:32:12.504Z,57.70
2019-02-27T06:34:40.784Z,59.10
2019-02-27T06:37:08.459Z,57.70
2019-02-27T06:39:36.231Z,59.20
2019-02-27T06:42:06.037Z,57.10
2019-02-27T06:44:33.679Z,58.90
2019-02-27T06:47:01.386Z,55.90
2019-02-27T06:49:29.083Z,56.80
2019-02-27T06:51:56.690Z,58.20
2019-02-27T06:54:24.416Z,57.50
2019-02-27T06:56:52.012Z,57.80
2019-02-27T06:59:19.560Z,57.50
2019-02-27T07:01:49.070Z,56.10
2019-02-27T07:04:16.646Z,54.70
2019-02-27T07:06:44.476Z,55.10
2019-02-27T07:09:12.287Z,55.00
2019-02-27T07:11:45.239Z,54.30
2019-02-27T07:14:09.800Z,55.00
2019-02-27T07:16:37.322Z,54.90
2019-02-27T07:19:06.994Z,53.70
2019-02-27T07:21:34.625Z,54.10
2019-02-27T07:24:02.229Z,53.90
2019-02-27T07:26:30.055Z,53.90
2019-02-27T07:28:59.243Z,51.70
2019-02-27T07:31:27.121Z,52.80
2019-02-27T07:33:55.048Z,52.20
2019-02-27T07:36:22.647Z,52.30
2019-02-27T07:38:50.390Z,50.80
2019-02-27T07:41:20.696Z,50.50
2019-02-27T07:43:47.755Z,52.90
2019-02-27T07:46:15.415Z,49.70
2019-02-27T07:48:43.202Z,49.70
2019-02-27T07:51:10.784Z,51.00
2019-02-27T07:53:38.543Z,50.70
2019-02-27T07:56:06.288Z,48.70
2019-02-27T07:58:34.618Z,50.50
2019-02-27T08:01:04.581Z,49.30
2019-02-27T08:03:32.021Z,49.70
2019-02-27T08:06:02.493Z,49.10
2019-02-27T08:08:29.408Z,49.00
2019-02-27T08:10:58.145Z,50.30
2019-02-27T08:13:27.042Z,49.10
2019-02-27T08:15:55.339Z,48.90
2019-02-27T08:18:29.774Z,48.80
2019-02-27T08:20:54.523Z,49.10
2019-02-27T08:23:23.657Z,48.80
2019-02-27T08:25:51.672Z,49.70
2019-02-27T08:28:19.318Z,48.80
2019-02-27T08:30:56.407Z,48.60
2019-02-27T08:33:49.619Z,48.80
2019-02-27T09:01:48.257Z,48.00
2019-02-27T09:04:12.478Z,47.90
2019-02-27T09:09:52.379Z,47.50
2019-02-27T09:16:07.993Z,47.80
2019-02-27T09:18:44.069Z,47.80
2019-02-27T09:26:37.281Z,48.40
2019-02-27T09:29:37.522Z,48.30
2019-02-27T09:32:11.662Z,47.70
2019-02-27T09:37:39.578Z,47.40
2019-02-27T09:44:02.641Z,46.60
2019-02-27T09:47:32.877Z,47.10
2019-02-27T09:50:06.530Z,47.10
2019-02-27T09:52:34.933Z,47.60
2019-02-27T09:55:08.991Z,46.60
2019-02-27T09:57:57.557Z,46.80
2019-02-27T10:00:28.689Z,46.50
2019-02-27T10:05:56.590Z,44.90
2019-02-27T10:08:38.917Z,44.80
2019-02-27T10:11:07.439Z,45.00
2019-02-27T10:13:35.544Z,45.10
2019-02-27T10:16:05.180Z,44.50
2019-02-27T10:18:41.528Z,46.10
2019-02-27T10:21:28.635Z,44.90
2019-02-27T10:24:04.335Z,46.40
2019-02-27T10:30:41.018Z,44.30
2019-02-27T10:33:11.923Z,44.10
2019-02-27T10:35:48.063Z,43.60
2019-02-27T10:38:22.888Z,44.50
2019-02-27T10:50:28.500Z,42.00
2019-02-27T10:53:27.117Z,42.30
2019-02-27T10:55:56.153Z,41.50
2019-02-27T11:04:49.924Z,40.40
2019-02-27T11:17:48.194Z,39.70
2019-02-27T11:20:27.853Z,39.60
2019-02-27T11:23:00.599Z,39.00
2019-02-27T11:29:03.215Z,39.00
2019-02-27T11:31:31.200Z,38.40
2019-02-27T11:34:01.088Z,40.00
2019-02-27T11:36:28.983Z,39.80
2019-02-27T11:38:59.190Z,38.30
2019-02-27T11:41:26.144Z,39.10
2019-02-27T11:43:53.709Z,39.20
2019-02-27T11:46:21.331Z,38.90
2019-02-27T11:48:49.503Z,38.90
2019-02-27T11:51:17.489Z,38.40
2019-02-27T11:53:46.446Z,38.10
2019-02-27T11:56:14.060Z,38.00
2019-02-27T11:58:41.629Z,38.00
2019-02-27T12:01:09.295Z,37.90
2019-02-27T12:03:37.049Z,37.90
2019-02-27T12:06:05.318Z,38.30
2019-02-27T12:08:34.500Z,37.20
2019-02-27T12:11:02.291Z,37.70
2019-02-27T12:13:40.517Z,37.30
2019-02-27T12:16:29.673Z,38.20
2019-02-27T12:20:33.378Z,36.70
2019-02-27T12:23:24.286Z,36.20
2019-02-27T12:29:21.351Z,35.90
2019-02-27T12:32:09.026Z,35.90
2019-02-27T12:34:37.125Z,35.30
2019-02-27T12:37:05.313Z,36.30
2019-02-27T12:39:33.062Z,36.40
2019-02-27T12:42:00.621Z,35.70
2019-02-27T12:44:28.132Z,35.20
2019-02-27T12:46:56.136Z,35.40
2019-02-27T12:49:30.467Z,35.50
2019-02-27T12:51:58.101Z,34.10
2019-02-27T12:54:26.867Z,34.70
2019-02-27T12:57:06.386Z,35.40
2019-02-27T12:59:34.089Z,34.70
2019-02-27T13:02:08.143Z,35.20
2019-02-27T13:04:31.054Z,34.60
2019-02-27T13:06:58.691Z,33.50
2019-02-27T13:09:26.273Z,34.00
2019-02-27T13:11:53.827Z,34.20
2019-02-27T13:14:21.361Z,34.10
2019-02-27T13:16:49.567Z,35.00
2019-02-27T13:19:17.819Z,35.50
2019-02-27T13:21:45.367Z,35.50
2019-02-27T13:24:15.240Z,36.20
2019-02-27T13:26:42.262Z,36.30
2019-02-27T13:29:09.866Z,34.70
2019-02-27T13:31:37.480Z,35.20
2019-02-27T13:34:05.020Z,35.10
2019-02-27T13:36:34.018Z,35.10
2019-02-27T13:39:02.056Z,35.20
2019-02-27T13:41:29.613Z,35.70
2019-02-27T13:43:58.185Z,35.90
2019-02-27T13:46:26.504Z,34.90
2019-02-27T13:48:54.065Z,35.40
2019-02-27T13:51:21.690Z,34.90
2019-02-27T13:53:49.307Z,35.40
2019-02-27T13:56:16.947Z,35.30
2019-02-27T13:58:44.566Z,34.90
2019-02-27T14:01:12.192Z,34.40
2019-02-27T14:03:39.802Z,34.80
2019-02-27T14:06:09.425Z,33.50
2019-02-27T14:08:36.821Z,33.30
2019-02-27T14:11:04.392Z,33.90
2019-02-27T14:13:31.970Z,33.70
2019-02-27T14:16:00.951Z,33.40
2019-02-27T14:18:29.232Z,32.90
2019-02-27T14:20:58.970Z,33.50
2019-02-27T14:23:26.185Z,33.40
2019-02-27T14:25:53.758Z,33.30
2019-02-27T14:28:21.690Z,33.10
2019-02-27T14:30:52.847Z,33.20
2019-02-27T14:33:20.766Z,32.50
2019-02-27T14:35:48.277Z,33.00
2019-02-27T14:38:17.127Z,32.80
2019-02-27T14:40:48.261Z,33.30
2019-02-27T14:43:17.008Z,31.90
2019-02-27T14:45:50.844Z,33.10
2019-02-27T14:48:21.465Z,34.00
2019-02-27T14:50:48.097Z,32.30
2019-02-27T14:53:18.787Z,32.70
2019-02-27T14:55:45.090Z,33.10
2019-02-27T14:58:12.699Z,32.70
2019-02-27T15:00:41.208Z,32.20
2019-02-27T15:03:15.129Z,32.30
2019-02-27T15:05:44.986Z,31.70
2019-02-27T15:08:12.443Z,31.60
2019-02-27T15:10:41.107Z,31.10
2019-02-27T15:13:08.979Z,31.10
2019-02-27T15:15:36.555Z,30.10
2019-02-27T15:18:04.521Z,28.20
2019-02-27T15:20:32.135Z,28.70
2019-02-27T15:22:59.771Z,27.90
2019-02-27T15:25:27.778Z,28.20
2019-02-27T15:27:58.284Z,28.70
2019-02-27T15:30:26.429Z,28.90
2019-02-27T15:32:54.226Z,29.30
2019-02-27T15:35:22.232Z,29.30
2019-02-27T15:37:50.245Z,29.50
2019-02-27T15:40:19.531Z,29.70
2019-02-27T15:42:47.396Z,29.40
2019-02-27T15:45:15.820Z,28.80
2019-02-27T15:47:43.577Z,28.80
2019-02-27T15:50:22.432Z,29.50
2019-02-27T15:52:48.227Z,28.70
2019-02-27T15:55:15.853Z,29.20
2019-02-27T15:57:43.473Z,29.60
2019-02-27T16:00:17.745Z,29.60
2019-02-27T16:02:42.677Z,29.70
2019-02-27T16:05:11.527Z,30.30
2019-02-27T16:07:39.962Z,31.10
2019-02-27T16:10:09.830Z,31.80
2019-02-27T16:12:37.390Z,32.20
2019-02-27T16:15:06.456Z,32.60
2019-02-27T16:17:36.648Z,32.80
2019-02-27T16:20:06.169Z,33.40
2019-02-27T16:22:33.852Z,33.90
2019-02-27T16:25:01.456Z,34.10
2019-02-27T16:27:29.113Z,34.50
2019-02-27T16:29:56.813Z,35.40
2019-02-27T16:32:25.008Z,36.00
2019-02-27T16:34:52.737Z,36.60
2019-02-27T16:37:22.852Z,37.40
2019-02-27T16:39:49.808Z,38.30
2019-02-27T16:42:32.721Z,38.80
2019-02-27T16:45:00.297Z,39.90
2019-02-27T16:47:27.931Z,40.50
2019-02-27T16:49:55.616Z,42.10
2019-02-27T16:52:23.339Z,42.40
2019-02-27T16:54:50.905Z,43.40
2019-02-27T16:57:24.079Z,43.60
2019-02-27T16:59:50.194Z,44.20
2019-02-27T17:02:17.837Z,44.50
2019-02-27T17:04:45.551Z,45.10
2019-02-27T17:07:13.173Z,45.70
2019-02-27T17:09:41.030Z,47.00
2019-02-27T17:12:15.210Z,46.30
2019-02-27T17:14:42.825Z,46.50
2019-02-27T17:17:18.873Z,47.60
2019-02-27T17:19:47.327Z,48.20
2019-02-27T17:22:14.881Z,49.00
2019-02-27T17:24:42.504Z,49.40
2019-02-27T17:27:12.666Z,49.80
2019-02-27T17:29:39.670Z,50.70
2019-02-27T17:32:07.472Z,50.90
2019-02-27T17:34:35.505Z,51.00
2019-02-27T17:37:06.369Z,51.40
2019-02-27T17:39:33.063Z,51.10
2019-02-27T17:42:00.702Z,52.00
2019-02-27T17:44:28.341Z,51.90
2019-02-27T17:46:55.960Z,51.40
2019-02-27T17:49:35.428Z,51.40
2019-02-27T17:52:11.123Z,51.10
2019-02-27T17:57:43.170Z,50.50
2019-02-27T18:04:15.435Z,51.80
2019-02-27T18:06:44.173Z,52.20
2019-02-27T18:09:11.805Z,52.00
2019-02-27T18:11:49.429Z,52.70
2019-02-27T18:14:20.173Z,53.40
2019-02-27T18:16:47.860Z,53.40
2019-02-27T18:19:16.658Z,54.10
2019-02-27T18:21:44.794Z,53.10
2019-02-27T18:24:15.584Z,53.80
2019-02-27T18:26:43.203Z,54.30
2019-02-27T18:29:10.992Z,55.30
2019-02-27T18:31:42.173Z,55.40
2019-02-27T18:34:09.863Z,56.00
2019-02-27T18:36:42.890Z,56.40
2019-02-27T18:39:15.066Z,56.30
2019-02-27T18:41:45.742Z,56.90
2019-02-27T18:44:12.736Z,57.10
2019-02-27T18:47:23.537Z,57.30
2019-02-27T18:49:52.199Z,56.90
2019-02-27T18:52:21.564Z,56.50
2019-02-27T18:54:49.411Z,57.70
2019-02-27T18:57:17.024Z,57.70
2019-02-27T18:59:44.687Z,57.70
2019-02-27T19:02:13.369Z,58.00
2019-02-27T19:04:41.015Z,58.10
2019-02-27T19:07:08.822Z,58.60
2019-02-27T19:09:36.621Z,59.00
2019-02-27T19:14:32.034Z,58.80
2019-02-27T19:21:56.216Z,58.80
2019-02-27T19:24:27.521Z,59.40
2019-02-27T19:26:53.424Z,60.10
2019-02-27T19:29:20.994Z,59.70
2019-02-27T19:31:51.749Z,60.90
2019-02-27T19:34:21.327Z,61.50
2019-02-27T19:36:50.102Z,61.50
2019-02-27T19:39:18.277Z,60.60
2019-02-27T19:41:48.126Z,61.30
2019-02-27T19:44:35.377Z,61.90
2019-02-27T19:47:02.953Z,62.40
2019-02-27T19:49:30.584Z,63.00
2019-02-27T19:52:08.790Z,63.00
2019-02-27T19:54:51.603Z,63.00
2019-02-27T21:43:29.557Z,67.90
2019-02-27T22:50:38.413Z,69.20
2019-02-27T22:53:07.455Z,67.90
2019-02-27T22:55:36.336Z,68.60
2019-02-27T22:58:04.133Z,69.10
2019-02-27T23:01:05.930Z,68.80
2019-02-27T23:03:36.970Z,69.40
2019-02-27T23:06:04.887Z,69.30
2019-02-27T23:08:32.637Z,69.70
2019-02-27T23:11:02.902Z,69.90
2019-02-27T23:13:29.937Z,69.30
2019-02-27T23:15:58.885Z,69.90
2019-02-27T23:18:26.967Z,69.00
2019-02-27T23:20:55.548Z,68.50
2019-02-27T23:23:23.976Z,69.30
2019-02-27T23:25:51.727Z,67.60
2019-02-27T23:28:19.495Z,68.50
2019-02-27T23:30:47.923Z,68.10
2019-02-27T23:33:15.697Z,68.70
2019-02-27T23:35:43.324Z,68.50
2019-02-27T23:38:10.934Z,69.50
2019-02-27T23:40:38.672Z,69.60
2019-02-27T23:43:06.310Z,69.50
2019-02-27T23:45:34.402Z,70.30
2019-02-27T23:48:02.965Z,69.30
2019-02-27T23:50:30.651Z,70.30
2019-02-27T23:52:58.319Z,71.50
2019-02-27T23:55:26.201Z,72.40
2019-02-27T23:57:57.388Z,71.40
